createdAt,value
2022-11-16T00:02:28.672Z,38.47
2022-11-16T00:06:05.372Z,36.08
2022-11-16T00:09:22.658Z,43.70
2022-11-16T00:13:20.054Z,41.20
2022-11-16T00:16:22.741Z,30.77
2022-11-16T00:19:47.914Z,39.50
2022-11-16T00:26:54.257Z,31.95
2022-11-16T00:30:38.161Z,36.15
2022-11-16T00:38:34.201Z,33.33
2022-11-16T00:42:15.156Z,32.70
2022-11-16T00:46:44.928Z,32.45
2022-11-16T00:50:22.603Z,35.78
2022-11-16T00:54:05.852Z,36.15
2022-11-16T01:01:56.175Z,36.67
2022-11-16T01:05:36.680Z,36.10
2022-11-16T01:09:13.063Z,34.10
2022-11-16T01:12:59.240Z,40.80
2022-11-16T01:16:51.089Z,36.00
2022-11-16T01:20:44.092Z,31.52
2022-11-16T01:24:23.528Z,35.70
2022-11-16T01:28:07.598Z,33.00
2022-11-16T01:31:43.870Z,40.97
2022-11-16T01:35:17.632Z,37.58
2022-11-16T01:39:12.442Z,41.85
2022-11-16T01:42:57.868Z,33.90
2022-11-16T01:46:43.818Z,46.25
2022-11-16T01:50:37.708Z,41.10
2022-11-16T01:54:14.855Z,29.17
2022-11-16T01:57:40.485Z,35.25
2022-11-16T02:01:16.952Z,38.10
2022-11-16T02:04:54.743Z,33.42
2022-11-16T02:13:34.787Z,34.10
2022-11-16T02:17:32.016Z,37.72
2022-11-16T02:21:11.153Z,30.77
2022-11-16T02:25:18.818Z,30.65
2022-11-16T02:29:45.459Z,37.38
2022-11-16T02:38:09.462Z,36.33
2022-11-16T02:42:00.028Z,34.35
2022-11-16T02:45:42.230Z,30.13
2022-11-16T02:54:05.108Z,39.67
2022-11-16T03:02:27.294Z,31.30
2022-11-16T03:06:41.654Z,35.40
2022-11-16T03:10:35.851Z,35.47
2022-11-16T03:14:17.398Z,40.25
2022-11-16T03:17:45.412Z,31.92
2022-11-16T03:25:44.263Z,32.55
2022-11-16T03:29:52.164Z,29.12
2022-11-16T03:45:49.545Z,37.42
2022-11-16T03:49:38.292Z,36.28
2022-11-16T03:58:11.428Z,26.98
2022-11-16T04:01:59.268Z,30.47
2022-11-16T04:06:21.840Z,30.77
2022-11-16T04:18:24.634Z,35.72
2022-11-16T04:22:40.366Z,30.45
2022-11-16T04:26:49.129Z,28.55
2022-11-16T04:30:59.706Z,31.48
2022-11-16T04:35:02.696Z,32.80
2022-11-16T04:38:47.746Z,29.85
2022-11-16T04:42:29.431Z,27.37
2022-11-16T04:46:24.463Z,27.70
2022-11-16T04:49:57.707Z,29.58
2022-11-16T04:53:42.086Z,22.92
2022-11-16T04:57:02.474Z,25.88
2022-11-16T05:00:41.417Z,25.90
2022-11-16T05:03:49.962Z,30.05
2022-11-16T05:07:22.001Z,23.55
2022-11-16T05:11:10.065Z,29.85
2022-11-16T05:15:10.387Z,34.55
2022-11-16T05:19:17.443Z,29.60
2022-11-16T05:27:32.641Z,30.05
2022-11-16T05:31:09.033Z,30.58
2022-11-16T05:34:46.960Z,33.00
2022-11-16T05:38:35.828Z,28.45
2022-11-16T05:42:17.339Z,30.40
2022-11-16T05:45:52.524Z,29.65
2022-11-16T05:49:37.774Z,30.92
2022-11-16T05:53:22.637Z,30.65
2022-11-16T05:57:08.071Z,32.55
2022-11-16T06:00:51.655Z,34.25
2022-11-16T06:04:27.860Z,31.85
2022-11-16T06:16:14.334Z,30.37
2022-11-16T06:20:01.291Z,32.70
2022-11-16T06:24:00.528Z,29.95
2022-11-16T06:27:51.146Z,30.40
2022-11-16T06:32:04.061Z,28.23
2022-11-16T06:35:41.403Z,27.73
2022-11-16T06:39:24.945Z,30.33
2022-11-16T06:43:07.838Z,25.52
2022-11-16T06:46:53.057Z,28.87
2022-11-16T06:50:32.663Z,27.48
2022-11-16T06:54:24.334Z,27.20
2022-11-16T07:01:38.662Z,30.10
2022-11-16T07:05:21.411Z,34.05
2022-11-16T07:09:25.311Z,32.05
2022-11-16T07:12:36.329Z,26.62
2022-11-16T07:16:59.341Z,35.33
2022-11-16T07:20:18.971Z,36.42
2022-11-16T07:23:25.375Z,33.67
2022-11-16T07:26:57.329Z,31.67
2022-11-16T07:30:21.240Z,32.40
2022-11-16T07:33:25.971Z,36.42
2022-11-16T07:41:06.234Z,31.30
2022-11-16T07:44:34.019Z,32.80
2022-11-16T07:48:11.408Z,40.75
2022-11-16T07:51:58.896Z,42.28
2022-11-16T07:55:08.642Z,32.45
2022-11-16T07:58:36.314Z,35.25
2022-11-16T08:01:50.231Z,48.90
2022-11-16T08:05:17.685Z,33.67
2022-11-16T08:08:28.469Z,36.30
2022-11-16T08:11:39.178Z,39.90
2022-11-16T08:15:28.659Z,36.58
2022-11-16T08:18:42.941Z,35.50
2022-11-16T08:22:26.135Z,32.53
2022-11-16T08:26:09.794Z,37.63
2022-11-16T08:34:09.532Z,31.87
2022-11-16T08:37:14.506Z,38.05
2022-11-16T08:40:29.410Z,30.05
2022-11-16T08:43:53.647Z,35.58
2022-11-16T08:47:02.019Z,34.17
2022-11-16T08:50:44.124Z,32.20
2022-11-16T08:54:20.179Z,34.28
2022-11-16T08:57:45.626Z,31.58
2022-11-16T09:01:12.727Z,50.83
2022-11-16T09:04:18.743Z,30.10
2022-11-16T09:07:22.319Z,39.17
2022-11-16T09:10:33.225Z,35.83
2022-11-16T09:13:37.499Z,34.42
2022-11-16T09:16:40.791Z,37.33
2022-11-16T09:20:06.576Z,40.10
2022-11-16T09:23:20.938Z,35.17
2022-11-16T09:26:57.674Z,35.28
2022-11-16T09:30:00.220Z,31.85
2022-11-16T09:36:36.868Z,41.05
2022-11-16T09:39:42.491Z,32.80
2022-11-16T09:42:54.028Z,36.95
2022-11-16T09:46:46.003Z,35.08
2022-11-16T09:50:03.633Z,33.35
2022-11-16T09:53:36.043Z,33.90
2022-11-16T09:56:42.319Z,35.47
2022-11-16T09:59:57.171Z,39.28
2022-11-16T10:03:20.682Z,35.35
2022-11-16T10:06:31.195Z,28.77
2022-11-16T10:09:40.708Z,30.23
2022-11-16T10:13:22.026Z,36.22
2022-11-16T10:16:41.446Z,32.00
2022-11-16T10:19:55.104Z,32.97
2022-11-16T10:23:28.982Z,38.60
2022-11-16T10:27:00.491Z,35.50
2022-11-16T10:30:10.625Z,38.53
2022-11-16T10:33:18.993Z,43.70
2022-11-16T10:36:27.538Z,59.65
2022-11-16T10:39:34.850Z,41.72
2022-11-16T10:42:58.186Z,30.08
2022-11-16T10:46:05.545Z,29.92
2022-11-16T10:49:25.245Z,37.13
2022-11-16T10:52:31.599Z,33.28
2022-11-16T10:55:34.738Z,31.20
2022-11-16T10:58:56.470Z,33.65
2022-11-16T11:02:01.418Z,34.85
2022-11-16T11:05:16.209Z,30.98
2022-11-16T11:08:33.691Z,33.03
2022-11-16T11:11:59.602Z,34.95
2022-11-16T11:15:12.645Z,33.92
2022-11-16T11:18:23.383Z,32.85
2022-11-16T11:21:27.954Z,42.20
2022-11-16T11:24:44.423Z,34.78
2022-11-16T11:28:26.854Z,27.62
2022-11-16T11:31:55.092Z,31.15
2022-11-16T11:35:03.110Z,34.85
2022-11-16T11:38:08.351Z,31.50
2022-11-16T11:41:19.443Z,27.55
2022-11-16T11:44:30.987Z,33.63
2022-11-16T11:47:58.461Z,30.98
2022-11-16T11:51:35.939Z,27.75
2022-11-16T11:55:05.962Z,30.60
2022-11-16T11:58:18.843Z,27.58
2022-11-16T12:01:48.573Z,30.37
2022-11-16T12:05:11.633Z,28.10
2022-11-16T12:08:45.987Z,34.58
2022-11-16T12:12:04.839Z,28.75
2022-11-16T12:15:36.412Z,31.23
2022-11-16T12:19:38.425Z,29.75
2022-11-16T12:23:11.309Z,28.33
2022-11-16T12:26:34.875Z,31.27
2022-11-16T12:29:37.734Z,26.42
2022-11-16T12:37:07.744Z,27.25
2022-11-16T12:41:02.183Z,27.58
2022-11-16T12:44:53.085Z,28.07
2022-11-16T12:48:15.867Z,29.20
2022-11-16T12:51:50.529Z,28.92
2022-11-16T12:55:27.097Z,32.40
2022-11-16T12:59:27.847Z,23.17
2022-11-16T13:03:11.346Z,25.25
2022-11-16T13:14:09.913Z,22.33
2022-11-16T13:15:02.167Z,22.90
2022-11-16T13:18:50.352Z,20.25
2022-11-16T13:22:28.175Z,23.10
2022-11-16T13:30:24.787Z,20.12
2022-11-16T13:34:22.972Z,28.83
2022-11-16T13:38:01.914Z,27.80
2022-11-16T13:41:36.773Z,21.33
2022-11-16T13:45:20.311Z,26.55
2022-11-16T13:49:01.996Z,28.33
2022-11-16T14:00:12.652Z,18.00
2022-11-16T14:03:35.522Z,23.43
2022-11-16T14:11:00.553Z,19.45
2022-11-16T14:26:03.015Z,38.40
2022-11-16T14:46:39.879Z,21.12
2022-11-16T14:50:40.935Z,20.17
2022-11-16T15:01:26.690Z,20.95
2022-11-16T15:04:49.728Z,20.05
2022-11-16T15:08:33.978Z,21.67
2022-11-16T15:12:23.520Z,19.75
2022-11-16T15:16:19.965Z,17.98
2022-11-16T15:19:58.853Z,22.20
2022-11-16T15:23:30.603Z,17.12
2022-11-16T15:26:49.200Z,27.08
2022-11-16T15:30:34.381Z,19.40
2022-11-16T15:34:16.630Z,21.73
2022-11-16T15:37:34.913Z,20.17
2022-11-16T15:40:55.417Z,24.30
2022-11-16T15:44:37.253Z,17.98
2022-11-16T15:48:22.504Z,17.52
2022-11-16T15:52:07.031Z,21.17
2022-11-16T15:55:46.936Z,18.40
2022-11-16T15:59:34.427Z,15.20
2022-11-16T16:03:04.572Z,12.43
2022-11-16T16:07:06.859Z,16.92
2022-11-16T16:10:42.087Z,14.48
2022-11-16T16:14:09.559Z,22.25
2022-11-16T16:17:39.172Z,17.58
2022-11-16T16:21:17.399Z,16.55
2022-11-16T16:25:37.054Z,14.80
2022-11-16T16:28:41.820Z,18.90
2022-11-16T16:32:50.359Z,15.52
2022-11-16T16:36:25.410Z,17.62
2022-11-16T16:40:00.784Z,14.25
2022-11-16T16:43:37.087Z,15.88
2022-11-16T16:47:11.625Z,10.63
2022-11-16T16:50:43.593Z,16.40
2022-11-16T16:54:16.484Z,16.98
2022-11-16T16:57:51.153Z,13.43
2022-11-16T17:01:29.006Z,18.20
2022-11-16T17:05:02.610Z,13.57
2022-11-16T17:12:11.557Z,13.40
2022-11-16T17:15:43.495Z,17.35
2022-11-16T17:19:19.318Z,13.62
2022-11-16T17:22:36.034Z,17.90
2022-11-16T17:25:42.523Z,18.10
2022-11-16T17:33:11.461Z,12.82
2022-11-16T17:36:15.369Z,14.63
2022-11-16T17:39:40.003Z,14.32
2022-11-16T17:43:15.875Z,15.52
2022-11-16T17:46:40.904Z,11.43
2022-11-16T17:53:36.821Z,12.23
2022-11-16T17:57:04.940Z,13.80
2022-11-16T18:00:50.090Z,12.57
2022-11-16T18:04:25.976Z,15.38
2022-11-16T18:07:52.927Z,16.00
2022-11-16T18:11:27.537Z,16.40
2022-11-16T18:15:21.419Z,12.55
2022-11-16T18:18:30.708Z,15.20
2022-11-16T18:22:11.637Z,14.50
2022-11-16T18:25:50.696Z,10.93
2022-11-16T18:29:22.274Z,12.93
2022-11-16T18:33:22.779Z,12.85
2022-11-16T18:37:00.119Z,12.25
2022-11-16T18:40:38.475Z,10.90
2022-11-16T18:48:26.586Z,12.50
2022-11-16T18:52:03.642Z,9.23
2022-11-16T19:07:15.805Z,15.90
2022-11-16T19:10:39.479Z,13.15
2022-11-16T19:14:17.226Z,11.15
2022-11-16T19:18:20.484Z,10.00
2022-11-16T19:21:39.411Z,14.13
2022-11-16T19:29:16.770Z,11.10
2022-11-16T19:33:05.278Z,14.50
2022-11-16T19:37:14.821Z,14.20
2022-11-16T19:40:51.373Z,12.20
2022-11-16T19:44:30.223Z,9.77
2022-11-16T19:48:10.504Z,13.98
2022-11-16T19:51:31.474Z,14.10
2022-11-16T19:55:16.235Z,14.15
2022-11-16T19:59:03.263Z,11.18
2022-11-16T20:02:29.907Z,17.05
2022-11-16T20:06:23.592Z,10.13
2022-11-16T20:10:12.714Z,10.85
2022-11-16T20:13:48.800Z,7.97
2022-11-16T20:17:22.786Z,9.40
2022-11-16T20:21:02.737Z,8.27
2022-11-16T20:24:21.078Z,11.10
2022-11-16T20:28:11.279Z,11.68
2022-11-16T20:49:53.450Z,8.52
2022-11-16T20:53:41.139Z,16.77
2022-11-16T20:57:15.914Z,11.02
2022-11-16T21:04:57.525Z,8.50
2022-11-16T21:08:28.013Z,6.68
2022-11-16T21:16:24.455Z,7.37
2022-11-16T21:20:25.861Z,8.30
2022-11-16T21:24:02.034Z,9.90
2022-11-16T21:31:25.868Z,9.73
2022-11-16T21:35:05.919Z,8.48
2022-11-16T21:38:28.016Z,7.95
2022-11-16T21:42:43.371Z,15.35
2022-11-16T21:50:35.270Z,9.05
2022-11-16T21:54:11.812Z,9.10
2022-11-16T21:58:16.367Z,8.63
2022-11-16T22:02:02.593Z,9.70
2022-11-16T22:06:03.385Z,9.85
2022-11-16T22:09:42.570Z,9.57
2022-11-16T22:17:07.489Z,10.80
2022-11-16T22:21:11.855Z,8.75
2022-11-16T22:24:53.344Z,8.75
2022-11-16T22:49:06.047Z,16.85
2022-11-16T23:06:28.912Z,11.40
2022-11-16T23:10:03.498Z,10.98
2022-11-16T23:17:39.798Z,16.23
2022-11-16T23:29:14.936Z,9.20
2022-11-16T23:32:48.287Z,9.90
2022-11-16T23:36:20.324Z,10.35
2022-11-16T23:39:58.874Z,11.15
2022-11-16T23:43:47.417Z,12.50
2022-11-16T23:47:26.561Z,16.23
2022-11-16T23:58:28.952Z,10.95
